Atlanta, Louisiana
Current Conditions -  °F | °C
As of 5:55 PM on Friday 21 Nov 2014 (Local Time) from KIER Reporting Station
Overcast Overcast  
Wind Chill: 63°   Ceiling: 8000
Heat Index: 63°   Visibility: 10mi
Dew Point: 51°   Wind: 3mph
Humidity: 67%   Direction: 130°SE
Pressure: 30.2"   Gusts: NA
Location:  31.81°N, 92.74°W
Report Text: KIER 212355Z AUTO 13003KT 10SM SCT070 BKN080 OVC090 17/11 A3020 RMK AO2 T01700108 10224 20170
Loading
Personal Weather Stations






























Interactive Weather Map New forecast layout! Learn more

10-Day Weather Forecast

Advertisements
Track Severe Weather on mobile